AirNav   Air Wisconsin Up To $57,000 Bonus
 
 619 users online  

18MI Vacottage Heliport
Gladwin, Michigan, USA

GOING TO GLADWIN?


FAA INFORMATION EFFECTIVE 05 DECEMBER 2019

Location

FAA Identifier: 18MI
Lat/Long: 42-57-31.1180N 084-38-25.9570W
42-57.518633N 084-38.432617W
42.9586439,-84.6405436
(estimated)
Elevation: 840 ft. / 256 m (estimated)
Variation: 05W (1990)
From city: 6 miles W of GLADWIN, MI
Time zone: UTC -5 (UTC -4 during Daylight Saving Time)
Zip code: 48879

Heliport Operations

Heliport use: Private use. Permission required prior to landing
Activation date: 04/1992
Control tower: no
ARTCC: CLEVELAND CENTER
FSS: LANSING FLIGHT SERVICE STATION
Attendance: UNATNDD
Segmented circle: no

Heliport Communications

WX ASOS at LAN (11 nm S): 119.75 (517-908-8494)
WX AWOS-3 at Y70 (18 nm W): 118.9 (616-523-1852)

Nearby radio navigation aids

VOR radial/distance  VOR name  Freq  Var
VIOr079/39.1VICTORY VOR/DME115.9504W
FNTr275/39.2FLINT VORTAC116.9006W

Heliport Services

Runway Information

Helipad H1

Dimensions: 50 x 50 ft. / 15 x 15 m
Surface: turf
Traffic pattern: leftleft

Heliport Ownership and Management from official FAA records

Ownership: Privately-owned
Owner: DIANNE ROSE SKINNER
2611 S. BAILEY LAKE
GLADWIN, MI 48624
Phone 517-383-2113
Manager: DIANNE ROSE SKINNER
6601 PRESTON
HOWELL, MI48624
Phone 517-546-6905

Additional Remarks

E111-3 OF THE TOUCHDOWN AREA SHOWING OBSTRUCTIONS AND HAS DISCUSSED THE LANDING AREA WITH THE OWNER OF THE HELIPAD.
E111-2 MR. RICHARD HAGGERTY AND CENTERED ON EXISTING ROAD TRAVERSING THE CLEARING; A NON-OBSTRUCTING WIND INDICATOR IS MAINTAINED; NO PILOT BE ALLOWED TO USE HELIPAD UNLESS HE/SHE HAS BEEN GIVEN A MAP
A52-H1 30 FT TO 40 FT TREES ALL QUADRANTS 200 FT TO 1300 FT DISTANCE.
FOR CD CTC GREAT LAKES APCH AT 269-459-3345, WHEN APCH CLSD CTC CLEVELAND ARTCC AT 440-774-0490

Instrument Procedures

There are no published instrument procedures at 18MI.

Some nearby airports with instrument procedures:

KLAN - Capital Region International Airport (11 nm S)
4D0 - Abrams Municipal Airport (12 nm S)
Y70 - Ionia County Airport (18 nm W)
KAMN - Gratiot Community Airport (22 nm N)
KRNP - Owosso Community Airport (22 nm E)
 
Loc | Ops | Rwys | IFR | FBO | Links
Com | Nav | Svcs | Stats | Notes
Area around 18MI (Vacottage Heliport)
 
Road maps at: MapQuest Bing Google
 
Aerial photo
No photo
 
Sectional chart

 
Airport distance calculator
Flying to Vacottage Heliport? Find the distance to fly.

From to 18MI

Sunrise and sunset
Times for 07-Dec-2019
 Local
(UTC-5)
 Zulu
(UTC)
Morning civil twilight07:2512:25
Sunrise07:5712:57
Sunset17:0322:03
Evening civil twilight17:3522:35

Current date and time
Zulu (UTC)  07-Dec-2019 09:04:13
Local (UTC-5)  07-Dec-2019 04:04:13
 
METAR
KLAN 
11nm S 
070853Z 00000KT 10SM CLR M04/M08 A3038 RMK AO2 SLP298 T10391078 53002
KY70 
18nm W 
070855Z AUTO 00000KT 10SM CLR M04/M07 A3036 RMK AO2 T10421067
KAMN 
22nm N 
070856Z AUTO 00000KT 10SM CLR M05/M05 A3038 RMK AO2 T10461055
TAF
KLAN 
11nm S 
070530Z 0706/0806 32006KT P6SM SCT030 BKN150 FM071500 18007KT P6SM OVC050
NOTAMs
Click for the latest NOTAMs
NOTAMs are issued by the DoD/FAA and will open in a separate window not controlled by AirNav.

 

 
 

Would you like to see your business listed on this page?

 If your business provides an interesting product or service to pilots, flight crews, aircraft, or users of the Vacottage Heliport, you should consider listing it here.  To start the listing process, click on the button below
 
Add a business
 

Other Pages about Vacottage Heliport

Update a link
 
Copyright © AirNav, LLC. All rights reserved. Privacy Policy  Contact